Time;durP1;ratioP1;P1;durP2;ratioP2;P2;SDS_P1;SDS_P2;PMS_P1;PMS_P2;Temp;Humidity;BMP_temperature;BMP_pressure;BME280_temperature;BME280_humidity;BME280_pressure;Samples;Min_cycle;Max_cycle;Signal;HPM_P1;HPM_P2
2022/08/31 00:04:02;;;;;;;0.20;0.20;;;;;;;;;;1997458;70;26225;-42
2022/08/31 00:06:31;;;;;;;0.57;0.20;;;;;;;;;;1973458;71;26303;-44
2022/08/31 00:08:58;;;;;;;0.10;0.10;;;;;;;;;;1967504;71;26292;-48
2022/08/31 00:11:30;;;;;;;0.20;0.20;;;;;;;;;;1976634;70;26612;-46
2022/08/31 00:13:59;;;;;;;0.20;0.20;;;;;;;;;;1982544;71;26253;-46
2022/08/31 00:16:27;;;;;;;0.10;0.10;;;;;;;;;;1994136;71;26201;-47
2022/08/31 00:18:54;;;;;;;0.17;0.17;;;;;;;;;;1986145;71;27344;-44
2022/08/31 00:21:23;;;;;;;0.25;0.25;;;;;;;;;;1975063;71;26311;-45
2022/08/31 00:23:50;;;;;;;0.30;0.30;;;;;;;;;;1988810;71;26194;-44
2022/08/31 00:26:18;;;;;;;0.10;0.10;;;;;;;;;;1990173;70;26259;-43
2022/08/31 00:28:45;;;;;;;0.20;0.20;;;;;;;;;;1987996;71;26384;-44
2022/08/31 00:31:13;;;;;;;0.23;0.23;;;;;;;;;;1972751;71;26526;-43
2022/08/31 00:33:40;;;;;;;0.08;0.08;;;;;;;;;;1979765;71;26366;-45
2022/08/31 00:36:09;;;;;;;0.30;0.30;;;;;;;;;;1979756;70;26265;-44
2022/08/31 00:38:37;;;;;;;0.20;0.20;;;;;;;;;;1984106;71;26334;-46
2022/08/31 00:41:04;;;;;;;0.17;0.17;;;;;;;;;;1986917;70;26237;-43
2022/08/31 00:43:36;;;;;;;0.20;0.20;;;;;;;;;;1984899;71;26732;-46
2022/08/31 00:46:03;;;;;;;0.10;0.10;;;;;;;;;;1979956;70;26236;-43
2022/08/31 00:48:31;;;;;;;0.20;0.20;;;;;;;;;;2003731;70;26320;-43
2022/08/31 00:50:58;;;;;;;0.20;0.20;;;;;;;;;;1982314;70;26235;-43
2022/08/31 00:53:26;;;;;;;0.20;0.20;;;;;;;;;;2003504;70;26737;-44
2022/08/31 00:55:53;;;;;;;0.15;0.15;;;;;;;;;;1986317;70;26255;-43
2022/08/31 00:58:21;;;;;;;0.20;0.20;;;;;;;;;;1984551;71;26776;-46
2022/08/31 01:00:48;;;;;;;0.30;0.30;;;;;;;;;;1974381;71;26215;-45
2022/08/31 01:03:17;;;;;;;0.20;0.20;;;;;;;;;;1966497;71;26165;-47
2022/08/31 01:05:44;;;;;;;0.10;0.10;;;;;;;;;;1970908;72;26285;-43
2022/08/31 01:08:12;;;;;;;0.20;0.20;;;;;;;;;;1978060;71;26257;-44
2022/08/31 01:10:42;;;;;;;0.10;0.10;;;;;;;;;;1994021;70;26193;-44
2022/08/31 01:13:11;;;;;;;0.20;0.20;;;;;;;;;;1970560;71;26734;-44
2022/08/31 01:15:40;;;;;;;0.15;0.15;;;;;;;;;;1989052;71;26821;-43
2022/08/31 01:18:08;;;;;;;0.13;0.13;;;;;;;;;;1977749;70;27442;-44
2022/08/31 01:20:45;;;;;;;0.15;0.15;;;;;;;;;;1987964;70;26203;-45
2022/08/31 01:23:10;;;;;;;0.70;0.20;;;;;;;;;;1986860;71;26266;-45
2022/08/31 01:25:38;;;;;;;0.20;0.20;;;;;;;;;;1983282;70;26272;-43
2022/08/31 01:28:07;;;;;;;0.20;0.20;;;;;;;;;;1976620;71;26989;-43
2022/08/31 01:30:35;;;;;;;0.17;0.17;;;;;;;;;;1990003;70;26306;-44
2022/08/31 01:33:02;;;;;;;0.10;0.10;;;;;;;;;;1985142;71;26370;-44
2022/08/31 01:35:30;;;;;;;0.10;0.10;;;;;;;;;;1979639;71;26869;-44
2022/08/31 01:37:58;;;;;;;0.20;0.20;;;;;;;;;;1995193;71;26275;-43
2022/08/31 01:40:32;;;;;;;0.13;0.13;;;;;;;;;;1988827;71;26701;-45
2022/08/31 01:43:00;;;;;;;0.20;0.20;;;;;;;;;;2004656;70;26274;-44
2022/08/31 01:45:27;;;;;;;0.10;0.10;;;;;;;;;;1978996;71;26864;-44
2022/08/31 01:47:54;;;;;;;0.10;0.10;;;;;;;;;;1991551;71;26230;-43
2022/08/31 01:50:21;;;;;;;0.20;0.20;;;;;;;;;;1980554;71;26259;-44
2022/08/31 01:52:49;;;;;;;0.10;0.10;;;;;;;;;;1996321;70;26250;-43
2022/08/31 01:55:16;;;;;;;0.62;0.10;;;;;;;;;;1984689;71;26196;-43
2022/08/31 01:57:43;;;;;;;0.10;0.10;;;;;;;;;;1995964;70;26346;-44
2022/08/31 02:00:11;;;;;;;0.20;0.20;;;;;;;;;;1967458;71;26260;-44
2022/08/31 02:02:38;;;;;;;0.15;0.15;;;;;;;;;;1981848;70;26278;-44
2022/08/31 02:05:06;;;;;;;0.20;0.20;;;;;;;;;;1974976;71;26272;-44
2022/08/31 02:07:33;;;;;;;0.15;0.10;;;;;;;;;;2005138;71;26877;-45
2022/08/31 02:10:00;;;;;;;0.20;0.20;;;;;;;;;;1995427;70;26373;-49
2022/08/31 02:12:27;;;;;;;0.10;0.10;;;;;;;;;;1992648;71;26327;-44
2022/08/31 02:14:55;;;;;;;0.10;0.10;;;;;;;;;;1919544;74;26295;-45
2022/08/31 02:17:22;;;;;;;0.15;0.10;;;;;;;;;;1895354;74;26378;-45
2022/08/31 02:19:50;;;;;;;0.20;0.20;;;;;;;;;;1896230;74;26365;-44
2022/08/31 02:22:17;;;;;;;0.10;0.10;;;;;;;;;;1920822;73;26277;-47
2022/08/31 02:24:44;;;;;;;0.10;0.10;;;;;;;;;;1891551;74;26258;-45
2022/08/31 02:27:12;;;;;;;0.10;0.10;;;;;;;;;;1897037;74;26813;-45
2022/08/31 02:29:39;;;;;;;0.13;0.13;;;;;;;;;;1923905;74;26250;-45
2022/08/31 02:32:06;;;;;;;0.10;0.10;;;;;;;;;;1937498;72;26777;-46
2022/08/31 02:34:34;;;;;;;0.17;0.17;;;;;;;;;;1958748;72;26288;-44
2022/08/31 02:37:01;;;;;;;0.05;0.05;;;;;;;;;;1965925;72;26247;-44
2022/08/31 02:39:28;;;;;;;0.20;0.20;;;;;;;;;;1937689;73;26228;-44
2022/08/31 02:41:56;;;;;;;0.10;0.10;;;;;;;;;;1909536;73;26842;-44
2022/08/31 02:44:23;;;;;;;0.20;0.20;;;;;;;;;;1899770;73;26396;-45
2022/08/31 02:46:50;;;;;;;0.20;0.20;;;;;;;;;;1920976;73;26351;-44
2022/08/31 02:49:18;;;;;;;0.20;0.20;;;;;;;;;;1946572;72;26277;-44
2022/08/31 02:51:45;;;;;;;0.10;0.10;;;;;;;;;;1904116;73;26263;-44
2022/08/31 02:54:13;;;;;;;0.20;0.20;;;;;;;;;;1971197;71;26760;-45
2022/08/31 02:56:40;;;;;;;0.20;0.20;;;;;;;;;;2002461;71;26301;-45
2022/08/31 02:59:08;;;;;;;0.40;0.20;;;;;;;;;;1978513;71;27143;-45
2022/08/31 03:01:36;;;;;;;0.10;0.10;;;;;;;;;;1984876;70;26225;-48
2022/08/31 03:04:04;;;;;;;0.15;0.15;;;;;;;;;;1962708;71;27355;-45
2022/08/31 03:06:31;;;;;;;0.17;0.17;;;;;;;;;;1973247;70;26182;-44
2022/08/31 03:08:59;;;;;;;0.13;0.13;;;;;;;;;;1985388;71;26405;-46
2022/08/31 03:11:26;;;;;;;0.30;0.30;;;;;;;;;;1982425;70;26238;-44
2022/08/31 03:13:54;;;;;;;0.10;0.10;;;;;;;;;;1975215;71;26760;-43
2022/08/31 03:16:21;;;;;;;0.00;0.00;;;;;;;;;;1996121;71;26374;-44
2022/08/31 03:18:48;;;;;;;0.17;0.17;;;;;;;;;;1987861;71;26250;-44
2022/08/31 03:21:16;;;;;;;0.10;0.10;;;;;;;;;;1977617;71;26928;-46
2022/08/31 03:23:44;;;;;;;0.10;0.10;;;;;;;;;;1968666;71;26247;-47
2022/08/31 03:26:11;;;;;;;0.10;0.10;;;;;;;;;;1975933;71;26240;-44
2022/08/31 03:28:39;;;;;;;0.10;0.10;;;;;;;;;;1968384;70;26314;-48
2022/08/31 03:31:07;;;;;;;0.20;0.20;;;;;;;;;;1975211;71;26801;-44
2022/08/31 03:33:34;;;;;;;0.15;0.15;;;;;;;;;;1970972;71;26284;-47
2022/08/31 03:36:03;;;;;;;0.10;0.10;;;;;;;;;;1977019;71;26652;-47
2022/08/31 03:38:31;;;;;;;0.10;0.10;;;;;;;;;;1993284;70;26270;-47
2022/08/31 03:40:58;;;;;;;0.10;0.10;;;;;;;;;;1964624;71;26274;-44
2022/08/31 03:43:25;;;;;;;0.20;0.20;;;;;;;;;;1981621;71;26256;-46
2022/08/31 03:45:53;;;;;;;0.10;0.10;;;;;;;;;;1968769;71;26800;-44
2022/08/31 03:48:21;;;;;;;0.08;0.08;;;;;;;;;;1968488;71;26301;-44
2022/08/31 03:50:49;;;;;;;0.10;0.10;;;;;;;;;;1972404;70;26284;-45
2022/08/31 03:53:16;;;;;;;0.10;0.10;;;;;;;;;;1979276;70;26282;-44
2022/08/31 03:55:44;;;;;;;0.10;0.10;;;;;;;;;;1972323;71;26842;-45
2022/08/31 03:58:11;;;;;;;0.10;0.10;;;;;;;;;;1997733;71;26694;-44
2022/08/31 04:00:40;;;;;;;0.10;0.10;;;;;;;;;;1971220;71;26248;-45
2022/08/31 04:03:07;;;;;;;0.10;0.10;;;;;;;;;;1980322;71;26244;-48
2022/08/31 04:05:36;;;;;;;0.10;0.10;;;;;;;;;;1977111;71;26308;-45
2022/08/31 04:08:03;;;;;;;0.10;0.10;;;;;;;;;;1989797;70;26234;-46
2022/08/31 04:10:31;;;;;;;0.15;0.15;;;;;;;;;;1980243;70;26290;-45
2022/08/31 04:12:58;;;;;;;0.10;0.10;;;;;;;;;;1984807;71;26321;-44
2022/08/31 04:15:25;;;;;;;0.10;0.10;;;;;;;;;;1984047;70;26311;-43
2022/08/31 04:17:52;;;;;;;0.10;0.10;;;;;;;;;;1972658;70;26737;-46
2022/08/31 04:20:20;;;;;;;0.08;0.08;;;;;;;;;;1974712;71;27591;-45
2022/08/31 04:22:47;;;;;;;0.47;0.10;;;;;;;;;;1975091;71;26810;-45
2022/08/31 04:25:14;;;;;;;0.10;0.10;;;;;;;;;;1985118;71;26747;-46
2022/08/31 04:27:41;;;;;;;0.10;0.10;;;;;;;;;;1982127;70;26739;-46
2022/08/31 04:30:09;;;;;;;0.00;0.00;;;;;;;;;;1984205;71;26266;-44
2022/08/31 04:32:36;;;;;;;0.05;0.05;;;;;;;;;;1974394;70;26373;-49
2022/08/31 04:35:04;;;;;;;0.20;0.20;;;;;;;;;;1984217;70;26262;-47
2022/08/31 04:37:33;;;;;;;0.23;0.20;;;;;;;;;;1970481;71;26901;-46
2022/08/31 04:40:03;;;;;;;0.30;0.15;;;;;;;;;;1979439;71;26294;-47
2022/08/31 04:42:29;;;;;;;0.10;0.10;;;;;;;;;;1976880;71;26271;-44
2022/08/31 04:44:56;;;;;;;0.10;0.10;;;;;;;;;;1979417;71;26291;-46
2022/08/31 04:47:24;;;;;;;0.10;0.10;;;;;;;;;;1979620;70;26260;-47
2022/08/31 04:49:51;;;;;;;0.00;0.00;;;;;;;;;;1999895;70;26276;-42
2022/08/31 04:52:18;;;;;;;0.10;0.10;;;;;;;;;;1992425;70;26295;-43
2022/08/31 04:54:46;;;;;;;0.10;0.10;;;;;;;;;;1980768;70;26183;-44
2022/08/31 04:57:13;;;;;;;0.20;0.20;;;;;;;;;;1968623;71;26348;-47
2022/08/31 04:59:40;;;;;;;0.00;0.00;;;;;;;;;;1980234;70;26273;-46
2022/08/31 05:02:07;;;;;;;2.05;0.10;;;;;;;;;;1988392;71;26279;-45
2022/08/31 05:04:35;;;;;;;0.55;0.20;;;;;;;;;;1971912;71;26265;-48
2022/08/31 05:07:02;;;;;;;0.10;0.10;;;;;;;;;;2001337;70;26307;-44
2022/08/31 05:09:29;;;;;;;0.20;0.20;;;;;;;;;;1979643;70;26700;-45
2022/08/31 05:11:57;;;;;;;0.10;0.10;;;;;;;;;;1971237;70;26285;-44
2022/08/31 05:14:25;;;;;;;0.62;0.30;;;;;;;;;;1979421;71;26296;-43
2022/08/31 05:16:52;;;;;;;0.25;0.10;;;;;;;;;;1968757;71;26400;-47
2022/08/31 05:19:19;;;;;;;0.10;0.10;;;;;;;;;;1998166;70;26276;-46
2022/08/31 05:21:47;;;;;;;0.20;0.10;;;;;;;;;;2002375;70;26281;-48
2022/08/31 05:24:15;;;;;;;0.45;0.20;;;;;;;;;;1976898;71;26277;-46
2022/08/31 05:26:46;;;;;;;0.72;0.15;;;;;;;;;;1971236;71;26257;-44
2022/08/31 05:29:15;;;;;;;1.95;0.30;;;;;;;;;;1995766;71;26677;-44
2022/08/31 05:31:43;;;;;;;1.45;0.30;;;;;;;;;;1977237;71;26787;-45
2022/08/31 05:34:14;;;;;;;0.40;0.40;;;;;;;;;;1985771;71;26250;-43
2022/08/31 05:36:42;;;;;;;0.30;0.30;;;;;;;;;;1986383;71;26265;-45
2022/08/31 05:39:10;;;;;;;2.25;0.50;;;;;;;;;;1987206;71;26262;-44
2022/08/31 05:41:44;;;;;;;0.55;0.55;;;;;;;;;;1989145;71;26751;-45
2022/08/31 05:44:12;;;;;;;1.35;0.50;;;;;;;;;;1985074;70;26636;-46
2022/08/31 05:46:39;;;;;;;4.95;0.50;;;;;;;;;;1978320;70;26230;-44
2022/08/31 05:49:07;;;;;;;2.50;0.60;;;;;;;;;;1975521;70;26313;-45
2022/08/31 05:51:35;;;;;;;0.65;0.50;;;;;;;;;;1976670;71;26198;-46
2022/08/31 05:54:03;;;;;;;2.75;0.65;;;;;;;;;;1970774;71;26284;-46
2022/08/31 05:56:30;;;;;;;0.70;0.60;;;;;;;;;;1974603;71;26297;-47
2022/08/31 05:58:58;;;;;;;1.40;0.50;;;;;;;;;;1978447;70;26242;-45
2022/08/31 06:01:29;;;;;;;0.60;0.60;;;;;;;;;;1989437;71;26263;-45
2022/08/31 06:03:56;;;;;;;1.52;0.70;;;;;;;;;;1972687;71;26334;-43
2022/08/31 06:06:24;;;;;;;1.37;0.60;;;;;;;;;;1989574;71;26305;-48
2022/08/31 06:08:51;;;;;;;0.95;0.68;;;;;;;;;;1960069;71;26349;-45
2022/08/31 06:11:20;;;;;;;2.40;0.70;;;;;;;;;;1973332;71;26339;-45
2022/08/31 06:13:49;;;;;;;0.57;0.57;;;;;;;;;;1972226;71;26284;-44
2022/08/31 06:16:17;;;;;;;0.75;0.75;;;;;;;;;;1979361;71;26245;-43
2022/08/31 06:18:54;;;;;;;0.55;0.55;;;;;;;;;;1997379;70;26281;-46
2022/08/31 06:21:15;;;;;;;2.77;0.65;;;;;;;;;;1995714;70;26737;-45
2022/08/31 06:23:42;;;;;;;0.60;0.60;;;;;;;;;;1981260;71;26245;-46
2022/08/31 06:26:11;;;;;;;1.02;0.60;;;;;;;;;;1975490;71;26681;-45
2022/08/31 06:28:40;;;;;;;0.85;0.60;;;;;;;;;;1977316;70;26246;-44
2022/08/31 06:31:11;;;;;;;1.85;0.50;;;;;;;;;;2000847;70;26301;-47
2022/08/31 06:33:38;;;;;;;1.40;0.60;;;;;;;;;;1976491;70;26822;-43
2022/08/31 06:36:10;;;;;;;1.17;0.40;;;;;;;;;;1971785;70;26731;-44
2022/08/31 06:38:39;;;;;;;0.60;0.60;;;;;;;;;;1965828;71;26308;-44
2022/08/31 06:41:17;;;;;;;0.60;0.60;;;;;;;;;;1983508;70;26244;-44
2022/08/31 06:43:44;;;;;;;0.55;0.47;;;;;;;;;;1983760;71;27167;-44
2022/08/31 06:46:13;;;;;;;0.50;0.50;;;;;;;;;;1971130;71;26328;-43
2022/08/31 06:48:40;;;;;;;0.47;0.47;;;;;;;;;;1976371;70;26240;-45
2022/08/31 06:51:08;;;;;;;1.00;0.50;;;;;;;;;;1976771;70;26346;-46
2022/08/31 06:53:39;;;;;;;1.10;0.60;;;;;;;;;;1990825;71;26295;-44
2022/08/31 06:56:07;;;;;;;0.53;0.53;;;;;;;;;;1987396;71;26250;-45
2022/08/31 06:58:34;;;;;;;0.50;0.50;;;;;;;;;;1986126;71;26240;-45
2022/08/31 07:01:06;;;;;;;0.40;0.40;;;;;;;;;;1980582;70;26328;-44
2022/08/31 07:03:34;;;;;;;1.80;0.70;;;;;;;;;;1978678;71;26218;-42
2022/08/31 07:06:07;;;;;;;0.53;0.40;;;;;;;;;;1972340;71;26237;-42
2022/08/31 07:08:34;;;;;;;2.10;0.40;;;;;;;;;;1989464;70;26315;-44
2022/08/31 07:11:02;;;;;;;2.90;0.50;;;;;;;;;;1965519;71;26936;-47
2022/08/31 07:13:30;;;;;;;0.50;0.50;;;;;;;;;;1971361;71;26317;-43
2022/08/31 07:16:01;;;;;;;0.55;0.45;;;;;;;;;;1980983;70;26269;-44
2022/08/31 07:18:28;;;;;;;0.50;0.50;;;;;;;;;;1969415;72;26704;-41
2022/08/31 07:20:57;;;;;;;4.50;0.70;;;;;;;;;;1980673;71;27160;-40
2022/08/31 07:23:24;;;;;;;0.40;0.40;;;;;;;;;;1974356;71;26240;-45
2022/08/31 07:25:52;;;;;;;0.57;0.45;;;;;;;;;;1972817;71;26353;-44
2022/08/31 07:28:19;;;;;;;1.17;0.40;;;;;;;;;;1999122;70;26306;-43
2022/08/31 07:30:48;;;;;;;0.47;0.42;;;;;;;;;;1987542;71;26250;-46
2022/08/31 07:33:17;;;;;;;0.50;0.50;;;;;;;;;;1982602;71;26270;-44
2022/08/31 07:35:44;;;;;;;4.78;0.60;;;;;;;;;;1990598;70;26246;-45
2022/08/31 07:43:42;;;;;;;2.08;0.50;;;;;;;;;;1979671;71;26250;-42
2022/08/31 07:46:10;;;;;;;1.15;0.47;;;;;;;;;;1964910;71;26233;-41
2022/08/31 07:48:37;;;;;;;0.50;0.50;;;;;;;;;;1978156;71;26300;-43
2022/08/31 07:51:06;;;;;;;2.62;0.60;;;;;;;;;;1981672;70;26290;-44
2022/08/31 07:53:43;;;;;;;1.20;0.60;;;;;;;;;;1974988;70;26244;-42
2022/08/31 07:56:02;;;;;;;6.42;0.90;;;;;;;;;;1984971;71;26282;-45
2022/08/31 07:58:29;;;;;;;1.55;0.80;;;;;;;;;;2006520;71;26210;-44
2022/08/31 08:00:58;;;;;;;4.05;0.90;;;;;;;;;;1994560;70;26510;-42
2022/08/31 08:03:26;;;;;;;3.75;0.68;;;;;;;;;;1984567;71;26813;-44
2022/08/31 08:05:54;;;;;;;4.70;0.80;;;;;;;;;;1998338;70;26301;-44
2022/08/31 08:08:23;;;;;;;6.90;1.00;;;;;;;;;;1979144;71;26894;-43
2022/08/31 08:10:51;;;;;;;2.72;0.90;;;;;;;;;;1987991;70;26687;-44
2022/08/31 08:13:18;;;;;;;7.78;0.95;;;;;;;;;;1996064;70;26293;-44
2022/08/31 08:15:47;;;;;;;7.87;0.75;;;;;;;;;;1983843;70;26835;-48
2022/08/31 08:18:14;;;;;;;4.78;1.15;;;;;;;;;;1996935;70;26379;-45
2022/08/31 08:20:41;;;;;;;3.05;0.65;;;;;;;;;;1976797;71;26315;-48
2022/08/31 08:23:11;;;;;;;3.98;0.85;;;;;;;;;;1984256;71;26312;-45
2022/08/31 08:25:38;;;;;;;5.90;0.70;;;;;;;;;;1963448;71;26292;-45
2022/08/31 08:28:06;;;;;;;3.83;0.60;;;;;;;;;;1995106;70;26237;-48
2022/08/31 08:30:34;;;;;;;1.45;0.68;;;;;;;;;;1992277;70;26409;-47
2022/08/31 08:33:02;;;;;;;6.67;0.70;;;;;;;;;;1978556;70;26337;-45
2022/08/31 08:35:31;;;;;;;2.22;0.55;;;;;;;;;;1978004;71;26299;-45
2022/08/31 08:37:58;;;;;;;1.12;0.65;;;;;;;;;;1972923;71;26414;-49
2022/08/31 08:40:40;;;;;;;4.85;0.60;;;;;;;;;;1980259;70;26713;-45
2022/08/31 08:43:09;;;;;;;0.60;0.60;;;;;;;;;;1985226;71;26254;-46
2022/08/31 08:45:37;;;;;;;4.25;0.70;;;;;;;;;;1981792;71;26237;-43
2022/08/31 08:48:08;;;;;;;1.37;0.98;;;;;;;;;;1979699;70;27077;-44
2022/08/31 08:50:35;;;;;;;0.90;0.60;;;;;;;;;;1974313;71;26753;-42
2022/08/31 08:53:04;;;;;;;4.42;0.55;;;;;;;;;;1970096;71;26773;-45
2022/08/31 08:55:33;;;;;;;2.35;0.50;;;;;;;;;;1984628;71;26687;-43
2022/08/31 08:58:04;;;;;;;1.22;0.70;;;;;;;;;;1971449;71;26257;-40
2022/08/31 09:00:30;;;;;;;0.90;0.47;;;;;;;;;;1979102;71;26339;-40
2022/08/31 09:02:59;;;;;;;1.95;0.60;;;;;;;;;;1976929;71;26233;-44
2022/08/31 09:05:33;;;;;;;2.58;0.47;;;;;;;;;;1983670;70;26700;-42
2022/08/31 09:08:17;;;;;;;1.55;0.42;;;;;;;;;;1968228;70;26329;-46
2022/08/31 09:10:46;;;;;;;0.55;0.55;;;;;;;;;;1970580;71;26241;-44
2022/08/31 09:13:17;;;;;;;2.45;0.40;;;;;;;;;;1994946;70;26233;-42
2022/08/31 09:16:03;;;;;;;2.37;0.53;;;;;;;;;;1984749;71;26310;-42
2022/08/31 09:18:35;;;;;;;1.00;0.40;;;;;;;;;;1988060;70;26258;-44
2022/08/31 09:21:24;;;;;;;4.67;0.62;;;;;;;;;;1973034;71;26340;-42
2022/08/31 09:23:49;;;;;;;0.68;0.42;;;;;;;;;;1961415;71;26338;-42
2022/08/31 09:26:18;;;;;;;2.95;1.02;;;;;;;;;;1984867;70;26318;-41
2022/08/31 09:28:47;;;;;;;0.72;0.30;;;;;;;;;;1970530;71;26296;-42
2022/08/31 09:31:18;;;;;;;2.17;0.30;;;;;;;;;;1970349;71;26346;-42
2022/08/31 09:33:49;;;;;;;0.40;0.40;;;;;;;;;;1972219;70;26249;-43
2022/08/31 09:36:25;;;;;;;0.30;0.30;;;;;;;;;;1982406;70;26280;-48
2022/08/31 09:38:53;;;;;;;1.47;0.60;;;;;;;;;;1986695;70;26377;-41
2022/08/31 09:41:31;;;;;;;1.17;0.40;;;;;;;;;;1975708;71;26335;-41
2022/08/31 09:44:00;;;;;;;1.02;0.72;;;;;;;;;;1987703;70;27103;-45
2022/08/31 09:46:30;;;;;;;0.88;0.50;;;;;;;;;;1965236;71;27840;-43
2022/08/31 09:48:58;;;;;;;0.85;0.60;;;;;;;;;;1962403;71;26268;-43
2022/08/31 09:51:27;;;;;;;1.47;0.60;;;;;;;;;;1993065;71;26332;-41
2022/08/31 09:56:53;;;;;;;1.37;0.80;;;;;;;;;;1966849;71;26342;-47
2022/08/31 09:59:23;;;;;;;2.58;0.88;;;;;;;;;;2005667;71;26262;-42
2022/08/31 10:01:47;;;;;;;3.20;0.93;;;;;;;;;;1998458;70;26798;-44
2022/08/31 10:04:16;;;;;;;1.65;1.10;;;;;;;;;;1985549;70;25874;-44
2022/08/31 10:06:58;;;;;;;9.03;2.98;;;;;;;;;;1984642;70;26251;-42
2022/08/31 10:09:40;;;;;;;5.12;2.60;;;;;;;;;;1996452;70;27339;-42
2022/08/31 10:12:11;;;;;;;6.00;2.70;;;;;;;;;;1961290;71;26698;-46
2022/08/31 10:14:52;;;;;;;5.47;2.52;;;;;;;;;;2005848;71;26196;-43
2022/08/31 10:17:30;;;;;;;3.85;2.35;;;;;;;;;;1975850;71;26198;-46
2022/08/31 10:20:08;;;;;;;4.00;2.17;;;;;;;;;;1998999;70;26356;-44
2022/08/31 10:22:45;;;;;;;6.00;2.30;;;;;;;;;;1980392;71;26714;-44
2022/08/31 10:25:31;;;;;;;3.40;2.02;;;;;;;;;;1977847;71;26255;-45
2022/08/31 10:28:07;;;;;;;3.60;2.22;;;;;;;;;;1976422;71;26324;-42
2022/08/31 10:30:36;;;;;;;3.87;2.05;;;;;;;;;;1997641;71;26634;-42
2022/08/31 10:33:17;;;;;;;2.87;1.70;;;;;;;;;;1984806;70;26772;-43
2022/08/31 10:35:48;;;;;;;4.35;1.80;;;;;;;;;;1987717;70;26253;-43
2022/08/31 10:38:22;;;;;;;4.37;1.67;;;;;;;;;;1985684;70;26681;-44
2022/08/31 10:40:50;;;;;;;2.98;1.70;;;;;;;;;;1995960;71;26302;-43
2022/08/31 10:43:20;;;;;;;2.05;1.65;;;;;;;;;;1975364;71;26255;-43
2022/08/31 10:45:49;;;;;;;3.17;1.62;;;;;;;;;;1990017;70;26537;-45
2022/08/31 10:48:18;;;;;;;3.47;1.52;;;;;;;;;;1980631;71;26296;-43
2022/08/31 10:50:50;;;;;;;4.30;1.55;;;;;;;;;;1996570;71;26288;-45
2022/08/31 10:53:21;;;;;;;3.22;1.70;;;;;;;;;;1965937;71;26362;-45
2022/08/31 10:55:55;;;;;;;3.12;1.42;;;;;;;;;;1960484;71;26331;-45
2022/08/31 10:58:24;;;;;;;1.75;1.45;;;;;;;;;;1977648;70;26658;-43
2022/08/31 11:00:58;;;;;;;3.87;1.32;;;;;;;;;;1975924;71;26240;-48
2022/08/31 11:03:27;;;;;;;2.02;1.15;;;;;;;;;;1964067;71;26629;-43
2022/08/31 11:05:56;;;;;;;1.70;1.42;;;;;;;;;;1968199;71;26821;-43
2022/08/31 11:08:28;;;;;;;3.27;1.32;;;;;;;;;;1970606;71;26888;-42
2022/08/31 11:10:56;;;;;;;1.30;1.15;;;;;;;;;;2006534;70;26288;-45
2022/08/31 11:13:46;;;;;;;3.70;1.40;;;;;;;;;;1982223;70;26210;-44
2022/08/31 11:16:16;;;;;;;1.62;1.30;;;;;;;;;;2000722;71;26289;-46
2022/08/31 11:19:06;;;;;;;1.82;1.27;;;;;;;;;;1999263;70;26203;-42
2022/08/31 11:21:34;;;;;;;1.20;1.00;;;;;;;;;;1981563;70;26324;-42
2022/08/31 11:24:08;;;;;;;1.00;0.90;;;;;;;;;;1979061;71;26316;-42
2022/08/31 11:26:42;;;;;;;1.20;1.10;;;;;;;;;;1990050;70;26710;-41
2022/08/31 11:29:13;;;;;;;4.65;1.35;;;;;;;;;;1981747;71;26747;-42
2022/08/31 11:31:41;;;;;;;1.67;1.00;;;;;;;;;;1991656;71;26810;-44
2022/08/31 11:34:15;;;;;;;1.75;1.00;;;;;;;;;;1981381;70;26262;-45
2022/08/31 11:36:46;;;;;;;1.77;1.00;;;;;;;;;;1928346;71;26275;-45
2022/08/31 11:39:15;;;;;;;0.80;0.80;;;;;;;;;;1968756;70;26341;-42
2022/08/31 11:41:46;;;;;;;3.45;0.80;;;;;;;;;;1987809;71;27842;-43
2022/08/31 11:44:35;;;;;;;0.95;0.95;;;;;;;;;;2000924;71;26239;-43
2022/08/31 11:47:05;;;;;;;0.90;0.90;;;;;;;;;;1979363;70;26374;-42
2022/08/31 11:49:37;;;;;;;1.32;0.90;;;;;;;;;;1974331;71;26300;-44
2022/08/31 11:52:09;;;;;;;2.98;0.85;;;;;;;;;;1972559;71;26424;-41
2022/08/31 11:54:41;;;;;;;0.80;0.80;;;;;;;;;;1977964;70;26767;-49
2022/08/31 11:57:14;;;;;;;0.60;0.60;;;;;;;;;;1972238;71;26265;-43
2022/08/31 11:59:40;;;;;;;1.75;0.82;;;;;;;;;;1967094;71;26327;-46
2022/08/31 12:02:21;;;;;;;0.72;0.72;;;;;;;;;;1990846;70;26721;-44
2022/08/31 12:04:56;;;;;;;0.95;0.90;;;;;;;;;;1974251;71;26187;-41
2022/08/31 12:07:27;;;;;;;0.80;0.80;;;;;;;;;;1985735;70;26800;-42
2022/08/31 12:10:06;;;;;;;0.60;0.60;;;;;;;;;;2000337;71;26301;-45
2022/08/31 12:12:38;;;;;;;0.80;0.80;;;;;;;;;;1958177;71;26204;-45
2022/08/31 12:15:19;;;;;;;0.60;0.60;;;;;;;;;;1989129;70;26299;-46
2022/08/31 12:17:50;;;;;;;1.32;0.60;;;;;;;;;;1971088;71;26713;-48
2022/08/31 12:20:24;;;;;;;1.07;0.70;;;;;;;;;;1977658;71;26305;-43
2022/08/31 12:25:43;;;;;;;0.72;0.72;;;;;;;;;;2001948;71;26237;-45
2022/08/31 12:28:27;;;;;;;0.50;0.50;;;;;;;;;;1987411;70;26776;-44
2022/08/31 12:30:56;;;;;;;0.60;0.60;;;;;;;;;;1989904;70;26346;-44
2022/08/31 12:33:24;;;;;;;0.60;0.60;;;;;;;;;;1997861;71;26304;-43
2022/08/31 12:35:53;;;;;;;0.65;0.65;;;;;;;;;;1979044;70;26313;-44
2022/08/31 12:38:21;;;;;;;0.47;0.47;;;;;;;;;;1979291;70;26319;-45
2022/08/31 12:40:56;;;;;;;0.60;0.60;;;;;;;;;;1981059;71;27283;-43
2022/08/31 12:43:26;;;;;;;0.60;0.60;;;;;;;;;;1974643;70;26247;-42
2022/08/31 12:46:12;;;;;;;0.60;0.60;;;;;;;;;;1961831;71;26335;-44
2022/08/31 12:48:41;;;;;;;0.50;0.50;;;;;;;;;;1969092;71;26260;-51
2022/08/31 12:51:19;;;;;;;0.53;0.50;;;;;;;;;;1912315;73;26253;-47
2022/08/31 12:53:54;;;;;;;0.40;0.40;;;;;;;;;;1904095;73;26287;-45
2022/08/31 12:56:32;;;;;;;0.47;0.47;;;;;;;;;;1965712;70;26290;-46
2022/08/31 12:59:06;;;;;;;0.40;0.40;;;;;;;;;;1977233;71;26611;-44
2022/08/31 13:01:35;;;;;;;0.45;0.45;;;;;;;;;;1974804;70;26335;-42
2022/08/31 13:04:03;;;;;;;2.83;0.53;;;;;;;;;;1989005;71;26261;-42
2022/08/31 13:06:32;;;;;;;0.30;0.30;;;;;;;;;;1997983;70;26406;-41
2022/08/31 13:09:00;;;;;;;0.30;0.30;;;;;;;;;;1975318;70;26309;-41
2022/08/31 13:11:32;;;;;;;0.40;0.40;;;;;;;;;;1983578;71;26267;-41
2022/08/31 13:14:09;;;;;;;0.55;0.55;;;;;;;;;;1967250;71;26422;-41
2022/08/31 13:16:41;;;;;;;0.40;0.40;;;;;;;;;;1990149;71;26940;-44
2022/08/31 13:19:10;;;;;;;0.23;0.23;;;;;;;;;;2000716;70;26261;-43
2022/08/31 13:21:37;;;;;;;0.93;0.40;;;;;;;;;;2000438;70;26190;-44
2022/08/31 13:24:06;;;;;;;0.40;0.40;;;;;;;;;;1978969;71;26336;-43
2022/08/31 13:26:34;;;;;;;1.25;0.30;;;;;;;;;;1989829;70;26279;-46
2022/08/31 13:29:06;;;;;;;0.37;0.37;;;;;;;;;;1991206;70;26299;-46
2022/08/31 13:31:34;;;;;;;0.30;0.30;;;;;;;;;;1965095;71;26323;-43
2022/08/31 13:34:04;;;;;;;0.40;0.40;;;;;;;;;;1974301;71;26256;-45
2022/08/31 13:36:38;;;;;;;0.40;0.40;;;;;;;;;;1986000;70;26705;-45
2022/08/31 13:39:13;;;;;;;0.50;0.50;;;;;;;;;;1962970;70;26238;-44
2022/08/31 13:41:42;;;;;;;0.30;0.30;;;;;;;;;;1973016;70;26190;-43
2022/08/31 13:44:11;;;;;;;0.40;0.40;;;;;;;;;;1977957;70;27224;-43
2022/08/31 13:46:42;;;;;;;0.33;0.33;;;;;;;;;;1973060;71;26260;-44
2022/08/31 13:49:10;;;;;;;0.30;0.30;;;;;;;;;;1988253;70;26276;-44
2022/08/31 13:51:39;;;;;;;0.30;0.30;;;;;;;;;;1978941;71;26299;-42
2022/08/31 13:54:24;;;;;;;0.37;0.37;;;;;;;;;;1985504;71;26310;-42
2022/08/31 13:56:54;;;;;;;0.20;0.20;;;;;;;;;;1985315;70;26292;-44
2022/08/31 13:59:23;;;;;;;0.37;0.37;;;;;;;;;;1984627;70;26312;-42
2022/08/31 14:01:52;;;;;;;0.17;0.17;;;;;;;;;;1995601;70;26269;-42
2022/08/31 14:04:42;;;;;;;0.30;0.30;;;;;;;;;;1988141;71;26283;-44
2022/08/31 14:07:07;;;;;;;0.20;0.20;;;;;;;;;;1983216;71;26359;-43
2022/08/31 14:09:34;;;;;;;0.28;0.28;;;;;;;;;;1986358;71;26227;-43
2022/08/31 14:12:03;;;;;;;0.30;0.30;;;;;;;;;;1970374;71;26315;-43
2022/08/31 14:14:38;;;;;;;1.07;0.20;;;;;;;;;;1987753;70;26729;-43
2022/08/31 14:17:02;;;;;;;0.40;0.30;;;;;;;;;;1970608;70;26308;-42
2022/08/31 14:19:30;;;;;;;0.95;0.40;;;;;;;;;;1989831;70;26262;-42
2022/08/31 14:21:59;;;;;;;3.00;0.30;;;;;;;;;;1968812;71;26336;-44
2022/08/31 14:24:26;;;;;;;0.30;0.30;;;;;;;;;;1972397;71;26266;-43
2022/08/31 14:26:53;;;;;;;3.30;0.60;;;;;;;;;;1963588;71;26317;-42
2022/08/31 14:29:22;;;;;;;1.50;0.20;;;;;;;;;;1976774;71;26253;-43
2022/08/31 14:31:51;;;;;;;2.00;0.40;;;;;;;;;;1996639;70;26236;-42
2022/08/31 14:34:23;;;;;;;2.98;0.45;;;;;;;;;;1973785;71;26185;-43
2022/08/31 14:36:52;;;;;;;0.28;0.28;;;;;;;;;;1974946;70;26256;-43
2022/08/31 14:39:20;;;;;;;2.65;0.28;;;;;;;;;;2001937;70;26359;-42
2022/08/31 14:41:48;;;;;;;1.80;0.30;;;;;;;;;;1993665;70;26258;-42
2022/08/31 14:44:17;;;;;;;0.55;0.33;;;;;;;;;;1980946;71;25835;-41
2022/08/31 14:46:44;;;;;;;3.45;0.28;;;;;;;;;;1955671;71;26296;-43
2022/08/31 14:49:12;;;;;;;0.30;0.30;;;;;;;;;;1971228;71;26298;-43
2022/08/31 14:51:40;;;;;;;1.27;0.47;;;;;;;;;;1972615;71;26632;-43
2022/08/31 14:54:08;;;;;;;0.23;0.23;;;;;;;;;;1980757;71;26288;-42
2022/08/31 14:56:36;;;;;;;0.80;0.42;;;;;;;;;;1977447;71;26809;-43
2022/08/31 14:59:09;;;;;;;0.30;0.30;;;;;;;;;;1961362;71;26767;-44
2022/08/31 15:01:35;;;;;;;0.47;0.30;;;;;;;;;;1979480;70;26491;-45
2022/08/31 15:04:03;;;;;;;0.75;0.40;;;;;;;;;;1994637;70;26586;-42
2022/08/31 15:06:31;;;;;;;0.93;0.40;;;;;;;;;;1973905;70;26275;-42
2022/08/31 15:09:03;;;;;;;0.40;0.40;;;;;;;;;;1996514;70;26292;-43
2022/08/31 15:11:27;;;;;;;1.22;0.68;;;;;;;;;;1995869;70;26271;-42